createdAt,value
2019-04-20T00:01:05.375Z,12.17
2019-04-20T00:03:38.023Z,14.20
2019-04-20T00:06:06.968Z,11.77
2019-04-20T00:08:40.750Z,14.57
2019-04-20T00:11:14.154Z,15.07
2019-04-20T00:13:48.710Z,11.03
2019-04-20T00:16:10.366Z,12.33
2019-04-20T00:18:46.607Z,11.47
2019-04-20T00:21:29.171Z,10.53
2019-04-20T00:24:07.112Z,11.67
2019-04-20T00:27:07.443Z,11.47
2019-04-20T00:29:21.590Z,16.37
2019-04-20T00:31:45.760Z,12.13
2019-04-20T00:34:13.850Z,11.90
2019-04-20T00:36:37.277Z,11.30
2019-04-20T00:39:11.428Z,10.97
2019-04-20T00:41:46.463Z,11.70
2019-04-20T00:44:18.347Z,12.97
2019-04-20T00:46:56.823Z,14.97
2019-04-20T00:49:29.300Z,11.17
2019-04-20T00:52:15.655Z,11.93
2019-04-20T00:54:15.973Z,12.13
2019-04-20T00:56:45.748Z,11.37
2019-04-20T00:59:30.232Z,11.90
2019-04-20T01:02:03.679Z,11.90
2019-04-20T01:04:37.513Z,13.73
2019-04-20T01:07:07.290Z,12.53
2019-04-20T01:09:24.472Z,14.60
2019-04-20T01:11:54.485Z,12.00
2019-04-20T01:14:38.027Z,12.20
2019-04-20T01:17:00.725Z,12.40
2019-04-20T01:19:26.471Z,13.87
2019-04-20T01:22:02.348Z,12.93
2019-04-20T01:24:31.357Z,12.23
2019-04-20T01:27:01.926Z,12.30
2019-04-20T01:29:36.920Z,11.57
2019-04-20T01:32:14.169Z,15.80
2019-04-20T01:34:41.675Z,14.87
2019-04-20T01:37:18.144Z,13.73
2019-04-20T01:39:40.025Z,13.13
2019-04-20T01:42:06.497Z,12.53
2019-04-20T01:44:41.292Z,14.03
2019-04-20T01:47:08.875Z,12.83
2019-04-20T01:49:40.322Z,12.70
2019-04-20T01:52:18.086Z,11.87
2019-04-20T01:55:00.786Z,13.27
2019-04-20T01:57:44.957Z,15.27
2019-04-20T02:00:26.204Z,12.07
2019-04-20T02:02:58.686Z,14.80
2019-04-20T02:05:29.442Z,13.77
2019-04-20T02:07:57.018Z,15.93
2019-04-20T02:10:34.681Z,13.33
2019-04-20T02:13:01.047Z,12.10
2019-04-20T02:15:35.217Z,13.83
2019-04-20T02:18:15.004Z,15.37
2019-04-20T02:20:48.753Z,14.63
2019-04-20T02:23:15.868Z,12.80
2019-04-20T02:25:34.478Z,12.53
2019-04-20T02:28:22.998Z,14.23
2019-04-20T02:31:18.305Z,14.43
2019-04-20T02:34:11.129Z,16.07
2019-04-20T02:39:21.531Z,14.93
2019-04-20T02:44:14.555Z,13.50
2019-04-20T02:46:40.784Z,14.30
2019-04-20T02:49:19.867Z,14.43
2019-04-20T02:51:42.045Z,15.37
2019-04-20T02:59:44.629Z,17.17
2019-04-20T03:01:38.057Z,14.27
2019-04-20T03:03:51.167Z,13.30
2019-04-20T03:06:30.478Z,13.33
2019-04-20T03:09:17.502Z,13.57
2019-04-20T03:11:52.995Z,14.70
2019-04-20T03:14:10.577Z,17.90
2019-04-20T03:16:41.086Z,14.97
2019-04-20T03:19:12.971Z,15.33
2019-04-20T03:21:55.507Z,14.50
2019-04-20T03:24:26.703Z,15.13
2019-04-20T03:26:47.318Z,13.50
2019-04-20T03:29:29.779Z,16.30
2019-04-20T03:32:25.253Z,14.30
2019-04-20T03:34:56.618Z,14.50
2019-04-20T03:37:07.116Z,16.40
2019-04-20T03:39:32.407Z,18.40
2019-04-20T03:41:50.254Z,13.50
2019-04-20T03:44:20.530Z,17.23
2019-04-20T03:46:57.025Z,16.33
2019-04-20T03:49:42.359Z,12.07
2019-04-20T03:52:09.578Z,16.33
2019-04-20T03:54:39.381Z,15.03
2019-04-20T03:57:26.627Z,16.00
2019-04-20T03:59:56.448Z,15.73
2019-04-20T04:02:37.726Z,18.50
2019-04-20T04:04:59.392Z,17.73
2019-04-20T04:07:21.077Z,17.87
2019-04-20T04:10:06.974Z,16.33
2019-04-20T04:13:13.001Z,18.10
2019-04-20T04:15:50.111Z,20.37
2019-04-20T04:18:25.994Z,16.40
2019-04-20T04:21:01.419Z,15.97
2019-04-20T04:23:48.972Z,20.13
2019-04-20T04:26:22.090Z,20.00
2019-04-20T04:28:55.969Z,15.73
2019-04-20T04:31:33.624Z,17.17
2019-04-20T04:34:16.475Z,18.27
2019-04-20T04:36:40.474Z,16.47
2019-04-20T04:42:14.133Z,15.27
2019-04-20T04:44:30.304Z,17.00
2019-04-20T04:46:57.631Z,16.17
2019-04-20T04:49:32.010Z,15.57
2019-04-20T04:52:05.332Z,16.03
2019-04-20T04:54:37.785Z,14.83
2019-04-20T04:57:03.445Z,20.23
2019-04-20T04:59:33.924Z,16.20
2019-04-20T05:02:05.362Z,16.00
2019-04-20T05:05:17.577Z,20.00
2019-04-20T05:07:44.911Z,16.37
2019-04-20T05:10:05.679Z,16.13
2019-04-20T05:12:37.145Z,16.27
2019-04-20T05:15:16.167Z,16.80
2019-04-20T05:18:04.358Z,17.50
2019-04-20T05:20:30.745Z,17.80
2019-04-20T05:23:04.020Z,18.30
2019-04-20T05:25:36.235Z,17.33
2019-04-20T05:28:14.463Z,17.60
2019-04-20T05:30:33.626Z,16.50
2019-04-20T05:33:08.259Z,18.43
2019-04-20T05:35:54.716Z,16.60
2019-04-20T05:38:32.491Z,18.87
2019-04-20T05:40:55.804Z,14.40
2019-04-20T05:43:33.115Z,15.47
2019-04-20T05:45:58.686Z,14.93
2019-04-20T05:48:31.732Z,17.63
2019-04-20T05:51:04.587Z,15.50
2019-04-20T05:53:39.798Z,13.70
2019-04-20T05:56:02.868Z,16.73
2019-04-20T05:58:38.540Z,16.13
2019-04-20T06:01:13.520Z,18.13
2019-04-20T06:03:45.112Z,15.67
2019-04-20T06:06:20.430Z,16.03
2019-04-20T06:08:53.772Z,15.57
2019-04-20T06:11:21.194Z,17.63
2019-04-20T06:13:43.065Z,18.20
2019-04-20T06:16:31.319Z,16.30
2019-04-20T06:19:18.276Z,17.93
2019-04-20T06:21:38.305Z,15.70
2019-04-20T06:24:19.271Z,18.37
2019-04-20T06:29:18.435Z,19.23
2019-04-20T06:31:51.939Z,15.27
2019-04-20T06:34:33.996Z,17.13
2019-04-20T06:37:09.941Z,15.97
2019-04-20T06:42:10.428Z,13.60
2019-04-20T06:44:37.026Z,15.83
2019-04-20T06:49:35.300Z,11.63
2019-04-20T06:55:03.035Z,13.30
2019-04-20T06:57:35.664Z,10.30
2019-04-20T07:00:12.810Z,12.13
2019-04-20T07:05:13.132Z,11.10
2019-04-20T07:07:43.285Z,14.13
2019-04-20T07:10:18.271Z,12.90
2019-04-20T07:12:40.881Z,10.40
2019-04-20T07:15:16.321Z,12.33
2019-04-20T07:20:21.106Z,11.08
2019-04-20T07:23:03.550Z,11.07
2019-04-20T07:25:34.524Z,11.43
2019-04-20T07:28:02.545Z,11.03
2019-04-20T07:30:29.927Z,8.83
2019-04-20T07:33:04.392Z,9.33
2019-04-20T07:35:37.045Z,10.38
2019-04-20T07:40:37.437Z,10.28
2019-04-20T07:43:07.956Z,9.78
2019-04-20T07:45:33.022Z,8.38
2019-04-20T07:48:15.543Z,10.72
2019-04-20T07:50:34.962Z,9.75
2019-04-20T07:53:10.812Z,9.83
2019-04-20T07:56:02.770Z,9.48
2019-04-20T07:58:08.327Z,13.18
2019-04-20T08:00:59.382Z,10.32
2019-04-20T08:03:28.184Z,10.08
2019-04-20T08:05:47.075Z,7.95
2019-04-20T08:08:27.158Z,8.78
2019-04-20T08:10:55.384Z,7.62
2019-04-20T08:13:43.933Z,9.30
2019-04-20T08:16:01.912Z,10.63
2019-04-20T08:18:32.225Z,7.87
2019-04-20T08:21:02.910Z,7.95
2019-04-20T08:23:33.704Z,7.33
2019-04-20T08:25:56.094Z,6.78
2019-04-20T08:28:28.464Z,8.23
2019-04-20T08:31:05.122Z,8.75
2019-04-20T08:34:07.503Z,6.53
2019-04-20T08:36:30.037Z,7.85
2019-04-20T08:39:12.749Z,7.05
2019-04-20T08:41:28.688Z,8.85
2019-04-20T08:44:09.830Z,11.95
2019-04-20T08:46:34.203Z,7.87
2019-04-20T08:49:03.397Z,7.22
2019-04-20T08:51:45.110Z,7.25
2019-04-20T08:54:02.234Z,8.68
2019-04-20T08:56:30.536Z,7.45
2019-04-20T08:58:48.262Z,8.20
2019-04-20T09:01:24.230Z,7.75
2019-04-20T09:04:01.409Z,9.63
2019-04-20T09:06:36.479Z,7.87
2019-04-20T09:09:17.332Z,9.48
2019-04-20T09:11:47.636Z,6.28
2019-04-20T09:14:00.071Z,7.25
2019-04-20T09:16:38.095Z,7.33
2019-04-20T09:19:04.509Z,7.33
2019-04-20T09:21:39.123Z,8.65
2019-04-20T09:24:26.938Z,7.58
2019-04-20T09:26:50.261Z,8.50
2019-04-20T09:29:15.999Z,7.97
2019-04-20T09:31:52.669Z,7.50
2019-04-20T09:34:26.027Z,6.35
2019-04-20T09:37:16.313Z,7.05
2019-04-20T09:39:37.804Z,6.78
2019-04-20T09:42:07.879Z,7.62
2019-04-20T09:44:43.873Z,6.62
2019-04-20T09:47:10.536Z,7.12
2019-04-20T09:49:51.827Z,8.28
2019-04-20T09:52:27.846Z,9.00
2019-04-20T09:54:59.195Z,8.08
2019-04-20T09:57:33.589Z,5.70
2019-04-20T10:00:04.350Z,5.90
2019-04-20T10:02:23.551Z,9.83
2019-04-20T10:04:47.547Z,7.95
2019-04-20T10:07:21.356Z,9.05
2019-04-20T10:09:49.022Z,9.38
2019-04-20T10:12:19.758Z,7.90
2019-04-20T10:14:49.310Z,6.80
2019-04-20T10:17:20.097Z,7.28
2019-04-20T10:19:49.711Z,6.10
2019-04-20T10:22:20.378Z,6.87
2019-04-20T10:24:50.946Z,9.48
2019-04-20T10:27:21.048Z,7.60
2019-04-20T10:29:51.464Z,7.08
2019-04-20T10:32:25.143Z,8.23
2019-04-20T10:34:55.153Z,6.55
2019-04-20T10:37:27.253Z,6.37
2019-04-20T10:39:56.701Z,6.58
2019-04-20T10:42:26.195Z,8.25
2019-04-20T10:44:58.569Z,7.22
2019-04-20T10:47:27.304Z,4.85
2019-04-20T10:49:56.953Z,6.83
2019-04-20T10:52:27.742Z,8.03
2019-04-20T10:54:58.528Z,7.00
2019-04-20T10:57:28.069Z,7.25
2019-04-20T10:59:57.635Z,7.25
2019-04-20T11:02:27.761Z,7.00
2019-04-20T11:04:57.387Z,6.25
2019-04-20T11:07:28.339Z,6.10
2019-04-20T11:10:07.964Z,7.08
2019-04-20T11:12:28.908Z,6.80
2019-04-20T11:14:58.720Z,5.80
2019-04-20T11:17:29.996Z,6.85
2019-04-20T11:19:59.681Z,6.37
2019-04-20T11:22:30.289Z,7.67
2019-04-20T11:25:00.020Z,6.03
2019-04-20T11:27:30.037Z,7.17
2019-04-20T11:30:00.193Z,6.20
2019-04-20T11:32:30.414Z,7.42
2019-04-20T11:35:07.666Z,5.92
2019-04-20T11:37:33.090Z,4.75
2019-04-20T11:40:03.251Z,6.92
2019-04-20T11:42:32.727Z,5.50
2019-04-20T11:45:02.752Z,7.17
2019-04-20T11:47:33.596Z,6.40
2019-04-20T11:50:03.827Z,10.15
2019-04-20T11:52:37.193Z,8.48
2019-04-20T11:55:08.506Z,7.55
2019-04-20T11:57:38.035Z,6.72
2019-04-20T12:00:13.158Z,6.37
2019-04-20T12:02:48.224Z,6.03
2019-04-20T12:05:30.607Z,5.95
2019-04-20T12:07:55.961Z,6.22
2019-04-20T12:10:26.374Z,8.30
2019-04-20T12:12:57.595Z,8.73
2019-04-20T12:15:28.622Z,8.70
2019-04-20T12:17:59.874Z,8.30
2019-04-20T12:20:29.335Z,10.25
2019-04-20T12:23:00.124Z,7.58
2019-04-20T12:25:32.671Z,6.15
2019-04-20T12:28:02.357Z,7.22
2019-04-20T12:30:33.180Z,5.90
2019-04-20T12:33:03.894Z,6.65
2019-04-20T12:35:34.189Z,6.20
2019-04-20T12:38:05.144Z,6.60
2019-04-20T12:40:35.445Z,7.85
2019-04-20T12:43:04.948Z,6.53
2019-04-20T12:45:35.625Z,8.25
2019-04-20T12:48:05.789Z,7.75
2019-04-20T12:50:35.418Z,6.85
2019-04-20T12:53:06.396Z,7.03
2019-04-20T12:55:36.749Z,6.90
2019-04-20T12:58:06.229Z,5.67
2019-04-20T13:00:49.762Z,7.70
2019-04-20T13:03:21.310Z,4.85
2019-04-20T13:05:52.005Z,6.12
2019-04-20T13:08:29.561Z,8.70
2019-04-20T13:10:54.862Z,6.62
2019-04-20T13:13:42.427Z,7.33
2019-04-20T13:16:14.347Z,7.15
2019-04-20T13:18:45.530Z,7.47
2019-04-20T13:21:14.949Z,5.75
2019-04-20T13:23:45.051Z,6.22
2019-04-20T13:26:15.530Z,7.97
2019-04-20T13:28:45.100Z,7.28
2019-04-20T13:31:15.709Z,8.08
2019-04-20T13:33:45.356Z,8.55
2019-04-20T13:36:14.851Z,8.85
2019-04-20T13:38:44.303Z,7.10
2019-04-20T13:41:13.845Z,6.70
2019-04-20T13:43:43.923Z,10.78
2019-04-20T13:46:13.567Z,6.58
2019-04-20T13:48:43.016Z,6.50
2019-04-20T13:51:12.698Z,7.33
2019-04-20T13:53:43.403Z,8.03
2019-04-20T13:56:14.051Z,7.47
2019-04-20T13:58:45.698Z,6.55
2019-04-20T14:01:26.455Z,7.95
2019-04-20T14:04:10.697Z,6.62
2019-04-20T14:06:41.453Z,7.50
2019-04-20T14:09:11.847Z,5.60
2019-04-20T14:11:41.516Z,6.97
2019-04-20T14:14:11.010Z,7.58
2019-04-20T14:16:41.205Z,8.03
2019-04-20T14:19:11.234Z,8.28
2019-04-20T14:21:41.757Z,7.47
2019-04-20T14:24:11.374Z,7.35
2019-04-20T14:26:43.710Z,8.58
2019-04-20T14:29:12.724Z,7.12
2019-04-20T14:31:42.294Z,7.30
2019-04-20T14:34:13.014Z,7.00
2019-04-20T14:36:42.481Z,8.45
2019-04-20T14:39:12.132Z,6.53
2019-04-20T14:41:42.360Z,6.65
2019-04-20T14:44:12.152Z,7.28
2019-04-20T14:46:42.041Z,8.08
2019-04-20T14:49:12.592Z,8.33
2019-04-20T14:51:42.014Z,7.70
2019-04-20T14:54:11.728Z,7.67
2019-04-20T14:56:41.429Z,6.35
2019-04-20T14:59:19.906Z,7.35
2019-04-20T15:02:03.012Z,8.95
2019-04-20T15:04:34.632Z,7.28
2019-04-20T15:07:04.743Z,7.55
2019-04-20T15:09:38.424Z,6.10
2019-04-20T15:12:06.842Z,7.00
2019-04-20T15:14:36.754Z,5.92
2019-04-20T15:17:06.891Z,12.45
2019-04-20T15:19:43.760Z,7.08
2019-04-20T15:22:33.814Z,7.45
2019-04-20T15:25:03.641Z,6.75
2019-04-20T15:27:33.239Z,6.62
2019-04-20T15:30:02.822Z,6.28
2019-04-20T15:32:33.220Z,7.70
2019-04-20T15:35:03.136Z,7.60
2019-04-20T15:37:33.031Z,7.83
2019-04-20T15:40:03.452Z,5.33
2019-04-20T15:42:33.231Z,7.53
2019-04-20T15:45:03.406Z,9.43
2019-04-20T15:47:34.167Z,6.45
2019-04-20T15:50:05.354Z,5.42
2019-04-20T15:52:41.073Z,8.65
2019-04-20T15:55:14.283Z,7.17
2019-04-20T15:57:38.761Z,6.70
2019-04-20T16:00:10.750Z,6.12
2019-04-20T16:02:45.322Z,6.92
2019-04-20T16:05:33.434Z,9.23
2019-04-20T16:08:10.640Z,7.03
2019-04-20T16:10:41.309Z,6.03
2019-04-20T16:13:20.456Z,5.47
2019-04-20T16:15:43.323Z,10.23
2019-04-20T16:18:12.702Z,10.70
2019-04-20T16:20:51.965Z,7.08
2019-04-20T16:23:14.501Z,6.87
2019-04-20T16:25:45.840Z,7.95
2019-04-20T16:28:15.217Z,7.83
2019-04-20T16:30:45.500Z,10.18
2019-04-20T16:33:14.993Z,9.23
2019-04-20T16:35:44.661Z,6.67
2019-04-20T16:38:14.289Z,6.75
2019-04-20T16:40:44.341Z,8.70
2019-04-20T16:43:22.125Z,9.45
2019-04-20T16:45:45.443Z,8.55
2019-04-20T16:48:16.021Z,7.65
2019-04-20T16:50:46.776Z,9.98
2019-04-20T16:53:17.034Z,8.90
2019-04-20T16:55:46.574Z,8.48
2019-04-20T16:58:16.066Z,8.80
2019-04-20T17:00:45.566Z,7.47
2019-04-20T17:03:15.341Z,8.80
2019-04-20T17:05:45.331Z,7.80
2019-04-20T17:08:16.735Z,8.68
2019-04-20T17:10:46.567Z,7.72
2019-04-20T17:13:30.776Z,7.62
2019-04-20T17:15:47.897Z,9.63
2019-04-20T17:18:17.580Z,8.28
2019-04-20T17:20:48.319Z,9.43
2019-04-20T17:23:17.789Z,8.95
2019-04-20T17:25:47.986Z,7.15
2019-04-20T17:28:24.916Z,9.70
2019-04-20T17:30:56.815Z,8.48
2019-04-20T17:33:30.691Z,9.98
2019-04-20T17:36:08.501Z,7.53
2019-04-20T17:38:37.637Z,9.15
2019-04-20T17:41:18.117Z,7.80
2019-04-20T17:44:09.953Z,9.50
2019-04-20T17:46:39.097Z,10.45
2019-04-20T17:49:09.669Z,13.40
2019-04-20T17:51:56.842Z,8.10
2019-04-20T17:54:08.410Z,8.30
2019-04-20T17:56:38.418Z,10.68
2019-04-20T17:59:08.216Z,8.50
2019-04-20T18:02:05.307Z,8.78
2019-04-20T18:07:10.853Z,8.63
2019-04-20T18:09:50.418Z,8.58
2019-04-20T18:12:03.311Z,9.93
2019-04-20T18:14:46.662Z,9.45
2019-04-20T18:17:17.735Z,12.45
2019-04-20T18:19:42.908Z,10.75
2019-04-20T18:22:13.990Z,10.35
2019-04-20T18:25:07.645Z,10.90
2019-04-20T18:27:37.507Z,11.00
2019-04-20T18:30:06.625Z,12.58
2019-04-20T18:32:21.517Z,12.93
2019-04-20T18:34:58.417Z,9.93
2019-04-20T18:37:25.725Z,8.80
2019-04-20T18:40:02.437Z,9.15
2019-04-20T18:42:34.333Z,11.05
2019-04-20T18:45:17.407Z,8.93
2019-04-20T18:47:48.124Z,8.80
2019-04-20T18:50:09.533Z,9.58
2019-04-20T18:52:31.683Z,10.98
2019-04-20T18:55:01.653Z,10.53
2019-04-20T18:57:33.137Z,9.98
2019-04-20T19:00:04.241Z,7.60
2019-04-20T19:02:38.840Z,8.68
2019-04-20T19:05:08.641Z,11.93
2019-04-20T19:07:41.492Z,7.78
2019-04-20T19:10:18.573Z,10.30
2019-04-20T19:12:52.526Z,10.43
2019-04-20T19:15:51.257Z,7.27
2019-04-20T19:18:22.415Z,9.80
2019-04-20T19:20:41.469Z,10.17
2019-04-20T19:23:10.863Z,10.43
2019-04-20T19:25:42.473Z,10.03
2019-04-20T19:28:14.505Z,8.33
2019-04-20T19:30:50.343Z,10.23
2019-04-20T19:33:29.786Z,9.13
2019-04-20T19:35:53.009Z,7.87
2019-04-20T19:38:23.608Z,8.10
2019-04-20T19:40:57.644Z,9.67
2019-04-20T19:43:27.770Z,11.63
2019-04-20T19:46:33.640Z,10.93
2019-04-20T19:48:32.465Z,9.87
2019-04-20T19:51:22.398Z,10.37
2019-04-20T19:53:45.196Z,10.93
2019-04-20T19:56:05.341Z,10.97
2019-04-20T19:58:35.909Z,10.17
2019-04-20T20:00:59.273Z,14.00
2019-04-20T20:03:29.922Z,13.87
2019-04-20T20:06:00.084Z,12.63
2019-04-20T20:08:34.561Z,12.30
2019-04-20T20:11:04.636Z,12.83
2019-04-20T20:13:41.240Z,10.27
2019-04-20T20:16:10.815Z,11.90
2019-04-20T20:18:51.163Z,12.43
2019-04-20T20:21:20.355Z,8.97
2019-04-20T20:23:38.391Z,11.70
2019-04-20T20:26:16.499Z,10.07
2019-04-20T20:28:45.448Z,12.17
2019-04-20T20:31:20.736Z,12.03
2019-04-20T20:33:56.523Z,11.60
2019-04-20T20:36:19.287Z,13.50
2019-04-20T20:38:49.339Z,13.17
2019-04-20T20:41:25.398Z,15.97
2019-04-20T20:43:56.351Z,16.80
2019-04-20T20:46:27.269Z,14.80
2019-04-20T20:49:15.291Z,14.33
2019-04-20T20:51:45.697Z,15.03
2019-04-20T20:53:59.875Z,15.73
2019-04-20T20:56:28.201Z,12.80
2019-04-20T20:59:00.732Z,14.70
2019-04-20T21:01:27.527Z,17.37
2019-04-20T21:03:56.737Z,14.40
2019-04-20T21:06:26.577Z,15.03
2019-04-20T21:08:59.959Z,17.57
2019-04-20T21:11:31.404Z,16.37
2019-04-20T21:13:59.282Z,16.93
2019-04-20T21:16:31.905Z,17.63
2019-04-20T21:19:18.235Z,15.63
2019-04-20T21:21:41.274Z,15.53
2019-04-20T21:24:10.863Z,16.90
2019-04-20T21:26:39.216Z,13.83
2019-04-20T21:29:06.242Z,13.27
2019-04-20T21:31:36.605Z,12.27
2019-04-20T21:34:09.315Z,16.50
2019-04-20T21:36:37.621Z,14.00
2019-04-20T21:39:16.156Z,14.07
2019-04-20T21:41:48.986Z,14.50
2019-04-20T21:44:16.726Z,21.47
2019-04-20T21:46:47.372Z,16.37
2019-04-20T21:49:30.711Z,14.10
2019-04-20T21:51:53.150Z,15.27
2019-04-20T21:54:16.436Z,12.63
2019-04-20T21:56:54.983Z,14.77
2019-04-20T21:59:24.104Z,14.57
2019-04-20T22:01:58.501Z,13.93
2019-04-20T22:04:22.735Z,16.13
2019-04-20T22:06:52.035Z,12.10
2019-04-20T22:09:25.080Z,15.80
2019-04-20T22:11:53.890Z,12.77
2019-04-20T22:14:26.555Z,16.00
2019-04-20T22:16:56.849Z,14.23
2019-04-20T22:19:36.891Z,10.67
2019-04-20T22:22:07.785Z,14.80
2019-04-20T22:24:43.767Z,13.70
2019-04-20T22:27:07.519Z,15.33
2019-04-20T22:29:30.399Z,15.87
2019-04-20T22:32:08.934Z,12.83
2019-04-20T22:34:31.927Z,14.13
2019-04-20T22:37:02.283Z,14.83
2019-04-20T22:39:39.779Z,20.37
2019-04-20T22:42:08.732Z,16.20
2019-04-20T22:44:36.344Z,15.77
2019-04-20T22:47:13.977Z,17.33
2019-04-20T22:49:48.262Z,15.67
2019-04-20T22:52:27.817Z,15.27
2019-04-20T22:54:55.286Z,16.20
2019-04-20T22:57:28.007Z,15.03
2019-04-20T22:59:52.357Z,12.97
2019-04-20T23:02:13.496Z,17.33
2019-04-20T23:04:43.043Z,12.10
2019-04-20T23:07:12.817Z,13.40
2019-04-20T23:09:48.892Z,15.27
2019-04-20T23:12:18.949Z,14.70
2019-04-20T23:14:44.799Z,15.23
2019-04-20T23:17:18.538Z,16.67
2019-04-20T23:19:49.447Z,17.00
2019-04-20T23:22:17.822Z,19.43
2019-04-20T23:24:48.986Z,17.47
2019-04-20T23:27:24.485Z,18.80
2019-04-20T23:29:50.872Z,21.67
2019-04-20T23:32:21.764Z,19.97
2019-04-20T23:34:57.645Z,18.17
2019-04-20T23:37:30.108Z,17.40
2019-04-20T23:39:54.806Z,19.00
2019-04-20T23:42:28.031Z,20.47
2019-04-20T23:45:00.421Z,17.10
2019-04-20T23:47:39.755Z,17.03
2019-04-20T23:50:19.551Z,19.03
2019-04-20T23:53:03.792Z,16.77
2019-04-20T23:55:13.296Z,17.97
2019-04-20T23:57:41.971Z,16.73
